Create Tblcommutelog Verified Points Advance Search
| # | Trip ID | Id Commuter | Trip Date | Trip Num | Current Lat | Current Lng | Delta Distance | Current Time | Activity | Activity Confidence | Current Speed | |
|---|---|---|---|---|---|---|---|---|---|---|---|---|
| 72581 | 250917_788776_16657492_1847 | 788776 | (not set) | (not set) | 38.68109776874 | -77.227961922183 | 22.923 | 2025-09-17 19:34:32 | in_vehicle | 100 | 13.728575643513 | |
| 72582 | 250917_788776_16657492_1846 | 788776 | (not set) | (not set) | 38.667754662638 | -77.239551015335 | 24.0832 | 2025-09-17 19:35:32 | in_vehicle | 100 | 13.773279569412 | |
| 72583 | 250917_786552_16654909_1852 | 786552 | (not set) | (not set) | 39.034051073541 | -77.04914471703 | 9.9712 | 2025-09-17 19:36:51 | in_vehicle | 100 | -0.44703925898772 | |
| 72584 | 250917_780825_16648502_1858 | 780825 | (not set) | (not set) | 38.774340584747 | -77.210790255169 | 14.7836 | 2025-09-17 19:38:33 | in_vehicle | 100 | 6.991694010568 | |
| 72585 | 250917_786552_16654909_1852 | 786552 | (not set) | (not set) | 39.005998276938 | -77.040138195294 | 9.9712 | 2025-09-17 19:39:35 | in_vehicle | 100 | -0.44703925898772 | |
| 72586 | 250917_788776_16657492_1847 | 788776 | (not set) | (not set) | 38.641629958909 | -77.251331843879 | 26.0748 | 2025-09-17 19:41:10 | in_vehicle | 100 | 10.21484706787 | |
| 72587 | 250917_788776_16657492_1847 | 788776 | (not set) | (not set) | 38.616656070626 | -77.252707779746 | 27.8017 | 2025-09-17 19:42:49 | in_vehicle | 100 | 9.5711105349272 | |
| 72588 | 250917_788776_16657492_1847 | 788776 | (not set) | (not set) | 38.611150484602 | -77.253541346108 | 28.1842 | 2025-09-17 19:45:21 | in_vehicle | 100 | 4.3720439528999 | |
| 72589 | 250917_788776_16657492_1847 | 788776 | (not set) | (not set) | 38.601075374261 | -77.256404244696 | 28.8963 | 2025-09-17 19:46:52 | in_vehicle | 100 | 5.1275403005892 | |
| 72590 | 250917_788776_16657492_1847 | 788776 | (not set) | (not set) | 38.586526474847 | -77.262754799944 | 29.9687 | 2025-09-17 19:48:40 | in_vehicle | 100 | 11.815247615046 | |
| 72591 | 250917_788776_16657492_1846 | 788776 | (not set) | (not set) | 38.567936912864 | -77.262491630758 | 31.3098 | 2025-09-17 19:49:52 | in_vehicle | 100 | 13.952095273007 | |
| 72592 | 250917_788776_16657492_1847 | 788776 | (not set) | (not set) | 38.554483021469 | -77.269652628102 | 32.4139 | 2025-09-17 19:51:09 | in_vehicle | 100 | 8.8200845798278 | |
| 72593 | 250917_786552_16654909_1852 | 786552 | (not set) | (not set) | 39.060882392811 | -77.045330059404 | 15.2422 | 2025-09-17 19:52:55 | in_vehicle | 100 | 0 | |
| 72594 | 250917_788776_16657492_1847 | 788776 | (not set) | (not set) | 38.524506080284 | -77.290878307713 | 34.8152 | 2025-09-17 19:53:56 | in_vehicle | 100 | 9.0793673500407 | |
| 72595 | 250917_786552_16654909_1852 | 786552 | (not set) | (not set) | 39.066017252741 | -77.025067379708 | 16.4673 | 2025-09-17 19:55:35 | in_vehicle | 100 | 8.8781996834962 | |
| 72596 | 250917_788776_16657492_1846 | 788776 | (not set) | (not set) | 38.517301478469 | -77.297600078672 | 35.4347 | 2025-09-17 19:56:22 | in_vehicle | 100 | 7.1883912845226 | |
| 72597 | 250917_788776_16657492_1846 | 788776 | (not set) | (not set) | 38.509416510266 | -77.307135034375 | 36.1851 | 2025-09-17 19:57:31 | in_vehicle | 100 | 8.2165815801944 | |
| 72598 | 250917_788776_16657492_1846 | 788776 | (not set) | (not set) | 38.487732108197 | -77.313566132317 | 37.725 | 2025-09-17 19:59:08 | in_vehicle | 100 | 14.166674117321 | |
| 72599 | 250917_788776_16657492_1847 | 788776 | (not set) | (not set) | 38.459355852491 | -77.325269647031 | 39.7938 | 2025-09-17 20:00:55 | in_vehicle | 100 | 14.19349647286 | |
| 72600 | 250917_788776_16657492_1846 | 788776 | (not set) | (not set) | 38.438176554989 | -77.338263767235 | 41.4578 | 2025-09-17 20:02:48 | in_vehicle | 100 | 9.6024032830563 |